KCSM/CSM METAR and TAF weather

Enter ICAO airport designator
Station Type Date Time Source
KCSM METAR 2019/12/10 02:53 UTC NOAA

KCSM 100253Z 02011KT 10SM OVC110 02/M09 A3016 RMK AO2 SLP219 T00171089 53031


Station Type Date Time Source
KCSM Decoded METAR 2019/12/10 02:53 UTC NOAA

CLINTON-SHERMAN AIRPORT, OK, United States (KCSM) 35-21E 99-12W 588M
Dec 09, 2019 - 09:53 PM EST / 2019.12.10 0253 UTC
Wind: from the NNE (020 degrees) at 13 MPH (11 KT):0
Visibility: 10 mile(s):0
Sky conditions: overcast
Temperature: 35.1 F (1.7 C)
Dew Point: 16.0 F (-8.9 C)
Relative Humidity: 45%
Pressure (altimeter): 30.16 in. Hg (1021 hPa)
Pressure tendency: 0.09 inches (3.1 hPa) higher than three hours ago
ob: KCSM 100253Z 02011KT 10SM OVC110 02/M09 A3016 RMK AO2 SLP219 T00171089 53031
cycle: 3

Station Type Date Time Source
KCSM TAF 2019/12/09 18:42 UTC NOAA

TAF KCSM 091739Z 0918/1018 35022G32KT P6SM BKN150 OVC250
FM100000 02010KT P6SM OVC100

Example: see airport list